Time;durP1;ratioP1;P1;durP2;ratioP2;P2;SDS_P1;SDS_P2;PMS_P1;PMS_P2;Temp;Humidity;BMP_temperature;BMP_pressure;BME280_temperature;BME280_humidity;BME280_pressure;Samples;Min_cycle;Max_cycle;Signal;HPM_P1;HPM_P2
2024/01/03 00:01:16;;;;;;;1.77;0.80;;;9.20;40.40;;;;;;5049127;28;46475;-69
2024/01/03 00:03:42;;;;;;;1.90;1.13;;;9.10;40.90;;;;;;5050544;28;46642;-69
2024/01/03 00:06:08;;;;;;;1.70;0.90;;;9.10;41.10;;;;;;5051560;28;46041;-69
2024/01/03 00:08:38;;;;;;;1.90;1.30;;;9.10;41.10;;;;;;5034580;28;46428;-69
2024/01/03 00:11:04;;;;;;;1.90;1.03;;;9.10;41.20;;;;;;5050087;28;46554;-69
2024/01/03 00:13:29;;;;;;;1.27;0.70;;;9.10;41.20;;;;;;5051051;28;46477;-69
2024/01/03 00:16:01;;;;;;;1.40;0.70;;;9.00;41.40;;;;;;5049603;28;46412;-69
2024/01/03 00:18:49;;;;;;;1.40;0.70;;;9.00;41.50;;;;;;5050741;28;46744;-69
2024/01/03 00:21:17;;;;;;;1.40;0.80;;;9.00;41.30;;;;;;5044253;28;46536;-69
2024/01/03 00:23:50;;;;;;;1.30;0.70;;;8.90;41.40;;;;;;5049725;28;46364;-69
2024/01/03 00:26:16;;;;;;;1.30;0.70;;;9.00;41.50;;;;;;5053206;28;47381;-68
2024/01/03 00:28:43;;;;;;;1.40;0.80;;;9.00;41.30;;;;;;5048717;28;46376;-68
2024/01/03 00:31:38;;;;;;;1.57;0.80;;;9.00;41.00;;;;;;5047577;28;46380;-68
2024/01/03 00:34:13;;;;;;;1.20;0.70;;;9.00;41.00;;;;;;5049562;28;46145;-65
2024/01/03 00:36:39;;;;;;;1.70;0.80;;;9.00;41.10;;;;;;5051643;28;47141;-69
2024/01/03 00:39:05;;;;;;;1.30;0.70;;;8.90;41.10;;;;;;5047891;28;46365;-68
2024/01/03 00:41:31;;;;;;;2.70;0.70;;;8.80;41.40;;;;;;5047864;28;47028;-68
2024/01/03 00:43:57;;;;;;;1.50;0.70;;;8.80;41.60;;;;;;5048048;28;46614;-69
2024/01/03 00:46:22;;;;;;;1.20;0.70;;;8.80;41.50;;;;;;5047542;28;46237;-69
2024/01/03 00:48:48;;;;;;;3.30;0.80;;;8.80;41.60;;;;;;5044853;28;46423;-69
2024/01/03 00:51:13;;;;;;;2.43;0.60;;;8.80;41.50;;;;;;5047313;28;46480;-68
2024/01/03 00:53:39;;;;;;;1.27;0.70;;;8.70;41.60;;;;;;5052769;28;46540;-69
2024/01/03 00:56:05;;;;;;;1.93;0.70;;;8.70;41.60;;;;;;5045368;28;46388;-69
2024/01/03 00:58:31;;;;;;;1.40;0.80;;;8.60;41.60;;;;;;5048611;28;46477;-69
2024/01/03 01:00:56;;;;;;;2.07;0.80;;;8.60;41.70;;;;;;5051525;28;46362;-67
2024/01/03 01:03:22;;;;;;;1.20;0.70;;;8.60;41.80;;;;;;5048665;28;46271;-68
2024/01/03 01:05:48;;;;;;;1.20;0.70;;;8.50;41.80;;;;;;5048708;28;46411;-68
2024/01/03 01:08:13;;;;;;;1.30;0.70;;;8.60;41.70;;;;;;5054401;28;46420;-68
2024/01/03 01:10:39;;;;;;;1.63;0.70;;;8.60;41.80;;;;;;5048394;28;46654;-68
2024/01/03 01:13:04;;;;;;;1.40;0.73;;;8.60;41.60;;;;;;5046861;28;46382;-67
2024/01/03 01:15:30;;;;;;;1.67;0.80;;;8.70;41.60;;;;;;5048295;28;46490;-68
2024/01/03 01:17:55;;;;;;;1.10;0.60;;;8.70;41.10;;;;;;5046284;28;46459;-68
2024/01/03 01:20:21;;;;;;;1.23;0.70;;;8.80;40.90;;;;;;5050868;28;46577;-68
2024/01/03 01:22:46;;;;;;;1.20;0.60;;;8.80;40.70;;;;;;5030395;28;46578;-68
2024/01/03 01:25:12;;;;;;;1.83;0.70;;;9.00;40.50;;;;;;5049314;28;46860;-68
2024/01/03 01:27:38;;;;;;;1.50;0.83;;;9.20;39.90;;;;;;5048655;28;46499;-69
2024/01/03 01:30:04;;;;;;;1.70;0.80;;;9.30;39.10;;;;;;5047140;28;45866;-67
2024/01/03 01:32:29;;;;;;;2.07;0.73;;;9.50;38.90;;;;;;5046828;28;46389;-68
2024/01/03 01:34:55;;;;;;;1.20;0.70;;;9.60;39.00;;;;;;5050119;28;47059;-68
2024/01/03 01:37:20;;;;;;;1.73;0.70;;;9.70;38.40;;;;;;5051831;28;46736;-69
2024/01/03 01:39:46;;;;;;;1.17;0.60;;;9.60;38.20;;;;;;5049667;28;46459;-68
2024/01/03 01:42:11;;;;;;;1.10;0.67;;;9.70;38.10;;;;;;5048784;28;46597;-67
2024/01/03 01:44:37;;;;;;;1.30;0.60;;;9.70;37.90;;;;;;5046111;28;46543;-68
2024/01/03 01:47:05;;;;;;;1.10;0.60;;;9.60;38.10;;;;;;5046494;28;46291;-68
2024/01/03 01:49:31;;;;;;;1.20;0.63;;;9.50;38.70;;;;;;5047197;28;46444;-68
2024/01/03 01:51:57;;;;;;;1.40;0.70;;;9.50;39.00;;;;;;5049014;28;46504;-69
2024/01/03 01:54:23;;;;;;;1.40;0.60;;;9.40;38.90;;;;;;5045795;28;46966;-69
2024/01/03 01:56:49;;;;;;;1.77;0.70;;;9.30;38.80;;;;;;5046852;28;46716;-69
2024/01/03 01:59:18;;;;;;;1.30;0.70;;;9.20;39.30;;;;;;5046837;28;46519;-68
2024/01/03 02:01:44;;;;;;;1.60;0.73;;;9.30;39.70;;;;;;5051067;28;46488;-68
2024/01/03 02:04:09;;;;;;;2.00;0.90;;;9.20;39.30;;;;;;5044066;28;47223;-68
2024/01/03 02:06:35;;;;;;;2.07;0.60;;;9.30;39.30;;;;;;5050338;28;46422;-68
2024/01/03 02:09:01;;;;;;;2.43;0.80;;;9.40;38.90;;;;;;5048630;28;46328;-68
2024/01/03 02:11:27;;;;;;;1.50;0.70;;;9.50;39.00;;;;;;5048898;28;46593;-69
2024/01/03 02:13:52;;;;;;;1.53;0.70;;;9.50;40.20;;;;;;5050059;28;46442;-69
2024/01/03 02:16:18;;;;;;;1.53;0.80;;;9.50;38.90;;;;;;5050890;28;46426;-69
2024/01/03 02:18:44;;;;;;;2.07;0.60;;;9.40;38.80;;;;;;5051411;28;46438;-68
2024/01/03 02:21:13;;;;;;;1.57;0.70;;;9.40;38.80;;;;;;5049391;28;46431;-69
2024/01/03 02:23:39;;;;;;;1.50;0.80;;;9.50;39.00;;;;;;5044836;28;47942;-68
2024/01/03 02:26:04;;;;;;;3.10;0.70;;;9.60;39.00;;;;;;5047200;28;46407;-68
2024/01/03 02:28:30;;;;;;;1.63;0.70;;;9.50;38.90;;;;;;5052035;28;46855;-68
2024/01/03 02:30:56;;;;;;;1.20;0.60;;;9.40;38.90;;;;;;5050883;28;46391;-68
2024/01/03 02:33:21;;;;;;;1.40;0.60;;;9.10;39.40;;;;;;5047751;28;47159;-68
2024/01/03 02:35:48;;;;;;;1.20;0.63;;;9.00;40.00;;;;;;5049056;28;46908;-68
2024/01/03 02:38:14;;;;;;;1.10;0.60;;;9.00;40.30;;;;;;5050349;28;46394;-68
2024/01/03 02:40:39;;;;;;;2.13;0.60;;;8.90;40.50;;;;;;5050366;28;46356;-68
2024/01/03 02:43:05;;;;;;;1.13;0.60;;;9.00;40.50;;;;;;5052587;28;46711;-68
2024/01/03 02:45:31;;;;;;;1.20;0.70;;;9.10;39.90;;;;;;5050430;28;46400;-68
2024/01/03 02:47:56;;;;;;;1.60;0.60;;;9.20;39.50;;;;;;5050766;28;46529;-68
2024/01/03 02:50:22;;;;;;;2.37;0.60;;;9.40;38.80;;;;;;5051146;28;46148;-69
2024/01/03 02:52:47;;;;;;;1.00;0.50;;;9.50;39.00;;;;;;5051978;28;47399;-68
2024/01/03 02:55:13;;;;;;;1.30;0.63;;;9.60;39.90;;;;;;5050543;28;46392;-68
2024/01/03 02:57:38;;;;;;;1.63;0.73;;;9.70;38.20;;;;;;5052544;28;46370;-68
2024/01/03 03:00:05;;;;;;;2.47;0.70;;;9.80;37.90;;;;;;5048278;28;46624;-69
2024/01/03 03:02:30;;;;;;;1.63;0.73;;;9.90;37.60;;;;;;5055483;28;46351;-69
2024/01/03 03:04:56;;;;;;;1.33;0.60;;;10.00;36.40;;;;;;5052365;28;46367;-69
2024/01/03 03:07:21;;;;;;;1.83;0.90;;;10.00;36.10;;;;;;5052157;28;46455;-67
2024/01/03 03:09:47;;;;;;;2.27;0.93;;;10.00;35.80;;;;;;5050561;28;46376;-68
2024/01/03 03:12:13;;;;;;;1.40;0.70;;;10.10;35.80;;;;;;5051919;28;46798;-69
2024/01/03 03:14:38;;;;;;;1.40;0.70;;;10.00;35.80;;;;;;5052286;28;46526;-69
2024/01/03 03:17:04;;;;;;;1.60;0.70;;;10.00;35.80;;;;;;5054888;28;45868;-67
2024/01/03 03:19:30;;;;;;;1.60;0.80;;;10.00;35.80;;;;;;5053718;28;46405;-69
2024/01/03 03:21:55;;;;;;;1.50;0.70;;;10.10;35.80;;;;;;5050048;28;46497;-67
2024/01/03 03:24:21;;;;;;;1.50;0.70;;;10.00;35.70;;;;;;5052520;28;46458;-68
2024/01/03 03:26:47;;;;;;;1.20;0.60;;;10.00;36.10;;;;;;5049905;28;46453;-68
2024/01/03 03:29:13;;;;;;;1.80;0.60;;;9.90;37.00;;;;;;5049057;28;46469;-69
2024/01/03 03:31:39;;;;;;;1.20;0.70;;;9.90;37.20;;;;;;5049146;28;46590;-69
2024/01/03 03:34:05;;;;;;;1.30;0.70;;;9.80;37.10;;;;;;5052720;28;46747;-70
2024/01/03 03:36:30;;;;;;;1.30;0.70;;;9.80;37.10;;;;;;5049942;28;46466;-69
2024/01/03 03:38:56;;;;;;;1.77;0.63;;;9.80;37.20;;;;;;5048957;28;46957;-69
2024/01/03 03:41:23;;;;;;;1.40;0.67;;;9.80;37.20;;;;;;5051188;28;47178;-69
2024/01/03 03:43:48;;;;;;;2.60;1.00;;;9.80;37.10;;;;;;5052194;28;46563;-69
2024/01/03 03:46:18;;;;;;;3.40;0.97;;;9.80;37.00;;;;;;5052107;28;46419;-68
2024/01/03 03:48:44;;;;;;;1.37;0.70;;;9.80;37.20;;;;;;5036241;28;46878;-69
2024/01/03 03:51:10;;;;;;;2.60;0.77;;;9.70;37.30;;;;;;5051187;28;46716;-69
2024/01/03 03:53:35;;;;;;;6.30;0.70;;;9.70;37.40;;;;;;5046241;28;46725;-69
2024/01/03 03:56:01;;;;;;;2.53;0.70;;;9.60;37.50;;;;;;5050534;28;46411;-64
2024/01/03 03:58:27;;;;;;;1.30;0.70;;;9.50;37.70;;;;;;5053081;28;45966;-69
2024/01/03 04:00:52;;;;;;;1.23;0.70;;;9.50;37.70;;;;;;5047559;28;46255;-68
2024/01/03 04:03:18;;;;;;;1.70;0.90;;;9.50;37.60;;;;;;5050164;28;46509;-69
2024/01/03 04:05:43;;;;;;;1.33;0.70;;;9.60;37.50;;;;;;5050592;28;46419;-69
2024/01/03 04:08:09;;;;;;;1.30;0.60;;;9.70;37.20;;;;;;5048124;28;46585;-68
2024/01/03 04:10:35;;;;;;;1.50;0.70;;;9.70;37.00;;;;;;5049173;28;46489;-69
2024/01/03 04:13:00;;;;;;;1.67;0.70;;;9.60;37.20;;;;;;5050314;28;46499;-68
2024/01/03 04:15:26;;;;;;;1.93;0.70;;;9.60;37.30;;;;;;5051516;28;46488;-69
2024/01/03 04:17:52;;;;;;;2.23;0.63;;;9.60;37.40;;;;;;5050580;28;46637;-69
2024/01/03 04:20:17;;;;;;;1.27;0.70;;;9.50;37.60;;;;;;5048287;28;46619;-69
2024/01/03 04:22:44;;;;;;;1.70;0.80;;;9.40;37.90;;;;;;5051993;28;46376;-68
2024/01/03 04:25:11;;;;;;;1.43;0.70;;;9.50;37.70;;;;;;5045941;28;46667;-68
2024/01/03 04:27:37;;;;;;;2.30;0.70;;;9.50;37.50;;;;;;5048921;28;46646;-69
2024/01/03 04:30:04;;;;;;;1.77;0.80;;;9.50;37.30;;;;;;5048524;28;47299;-68
2024/01/03 04:32:31;;;;;;;1.30;0.60;;;9.50;37.40;;;;;;5049792;28;46517;-66
2024/01/03 04:34:56;;;;;;;1.30;0.70;;;9.50;37.70;;;;;;5052769;28;46519;-67
2024/01/03 04:37:22;;;;;;;1.20;0.60;;;9.50;37.60;;;;;;5048337;28;46478;-67
2024/01/03 04:39:48;;;;;;;1.10;0.60;;;9.40;37.70;;;;;;5051356;28;46755;-69
2024/01/03 04:42:13;;;;;;;1.17;0.57;;;9.30;38.10;;;;;;5046440;28;46497;-68
2024/01/03 04:44:43;;;;;;;1.20;0.60;;;9.20;38.70;;;;;;5046626;28;46698;-68
2024/01/03 04:47:08;;;;;;;1.23;0.60;;;9.30;38.80;;;;;;5048201;28;46712;-69
2024/01/03 04:49:34;;;;;;;1.10;0.60;;;9.30;38.30;;;;;;5051284;28;46529;-69
2024/01/03 04:52:00;;;;;;;1.20;0.60;;;9.30;38.10;;;;;;5046433;28;46446;-68
2024/01/03 04:54:25;;;;;;;1.40;0.70;;;9.40;37.90;;;;;;5049470;28;46580;-67
2024/01/03 04:56:51;;;;;;;1.40;0.60;;;9.40;38.00;;;;;;5048126;28;46571;-67
2024/01/03 04:59:17;;;;;;;1.10;0.60;;;9.30;37.90;;;;;;5045238;28;46405;-68
2024/01/03 05:01:42;;;;;;;1.20;0.60;;;9.30;37.90;;;;;;5047082;28;46466;-68
2024/01/03 05:04:08;;;;;;;2.17;0.70;;;9.40;37.80;;;;;;5051081;28;46717;-68
2024/01/03 05:06:35;;;;;;;1.10;0.60;;;9.40;37.70;;;;;;5050380;28;46327;-67
2024/01/03 05:09:01;;;;;;;1.10;0.60;;;9.40;37.60;;;;;;5049043;28;46709;-65
2024/01/03 05:11:27;;;;;;;1.20;0.60;;;9.50;37.40;;;;;;5046240;28;46693;-68
2024/01/03 05:13:53;;;;;;;1.20;0.60;;;9.50;37.10;;;;;;5046343;28;46686;-68
2024/01/03 05:16:19;;;;;;;1.33;0.60;;;9.50;37.00;;;;;;5048585;28;46522;-67
2024/01/03 05:18:44;;;;;;;1.23;0.60;;;9.50;36.80;;;;;;5045825;28;46542;-67
2024/01/03 05:21:11;;;;;;;1.10;0.60;;;9.60;36.80;;;;;;5046584;28;46503;-68
2024/01/03 05:23:37;;;;;;;1.43;0.60;;;9.60;36.60;;;;;;5047747;28;46474;-68
2024/01/03 05:26:02;;;;;;;1.17;0.60;;;9.70;36.60;;;;;;5048680;28;46565;-68
2024/01/03 05:28:28;;;;;;;1.10;0.60;;;9.70;36.50;;;;;;5049288;28;46069;-67
2024/01/03 05:30:54;;;;;;;1.10;0.50;;;9.70;36.40;;;;;;5050906;28;46468;-67
2024/01/03 05:33:19;;;;;;;1.10;0.60;;;9.70;36.40;;;;;;5047405;28;46439;-67
2024/01/03 05:35:45;;;;;;;1.10;0.50;;;9.60;36.50;;;;;;5046693;28;46266;-68
2024/01/03 05:38:10;;;;;;;1.30;0.63;;;9.60;36.60;;;;;;5050159;28;47443;-68
2024/01/03 05:40:36;;;;;;;3.20;0.67;;;9.50;36.80;;;;;;5045861;28;46725;-68
2024/01/03 05:43:02;;;;;;;1.10;0.60;;;9.50;37.00;;;;;;5048579;28;46724;-68
2024/01/03 05:45:28;;;;;;;1.10;0.60;;;9.50;37.10;;;;;;5047819;28;46258;-68
2024/01/03 05:47:53;;;;;;;1.10;0.60;;;9.40;37.40;;;;;;5030487;28;48161;-68
2024/01/03 05:50:19;;;;;;;1.30;0.60;;;9.30;37.70;;;;;;5048860;28;46516;-68
2024/01/03 05:52:44;;;;;;;1.63;0.67;;;9.30;37.80;;;;;;5048496;28;46518;-68
2024/01/03 05:55:10;;;;;;;1.10;0.60;;;9.30;37.90;;;;;;5049028;28;46471;-67
2024/01/03 05:57:35;;;;;;;1.30;0.60;;;9.30;38.00;;;;;;5045119;28;46509;-68
2024/01/03 06:00:02;;;;;;;1.23;0.60;;;9.20;38.00;;;;;;5030593;28;46461;-68
2024/01/03 06:02:28;;;;;;;1.00;0.60;;;9.30;38.30;;;;;;5046759;28;45879;-68
2024/01/03 06:04:54;;;;;;;1.00;0.60;;;9.30;38.30;;;;;;5048020;28;46522;-68
2024/01/03 06:07:19;;;;;;;1.10;0.60;;;9.20;38.70;;;;;;5046160;28;47184;-68
2024/01/03 06:09:46;;;;;;;2.40;0.60;;;9.20;38.70;;;;;;5047630;28;46446;-65
2024/01/03 06:12:12;;;;;;;1.10;0.60;;;9.20;38.80;;;;;;5045994;28;46203;-69
2024/01/03 06:14:37;;;;;;;1.50;0.63;;;9.20;38.70;;;;;;5055962;28;46680;-69
2024/01/03 06:17:03;;;;;;;1.30;0.70;;;9.10;38.60;;;;;;5048371;28;45930;-68
2024/01/03 06:19:28;;;;;;;1.40;0.60;;;9.00;39.20;;;;;;5052325;28;46885;-67
2024/01/03 06:21:54;;;;;;;1.30;0.60;;;8.90;39.50;;;;;;5035435;28;46651;-69
2024/01/03 06:24:19;;;;;;;1.20;0.70;;;8.80;40.10;;;;;;5052276;28;46373;-68
2024/01/03 06:26:45;;;;;;;1.10;0.60;;;8.70;40.70;;;;;;5049024;28;46412;-68
2024/01/03 06:29:11;;;;;;;1.60;0.83;;;8.50;41.10;;;;;;5050710;28;46563;-69
2024/01/03 06:31:36;;;;;;;1.73;0.80;;;8.40;41.60;;;;;;5045972;28;46527;-69
2024/01/03 06:34:02;;;;;;;1.20;0.60;;;8.40;42.00;;;;;;5047905;28;46491;-67
2024/01/03 06:36:27;;;;;;;1.93;0.67;;;8.40;42.00;;;;;;5050684;28;46639;-66
2024/01/03 06:38:53;;;;;;;1.27;0.70;;;8.50;42.00;;;;;;5052633;28;46459;-66
2024/01/03 06:41:18;;;;;;;1.53;0.70;;;8.40;42.00;;;;;;5050235;28;46480;-68
2024/01/03 06:43:45;;;;;;;1.13;0.70;;;8.40;42.20;;;;;;5049462;28;46846;-68
2024/01/03 06:46:10;;;;;;;2.30;0.80;;;8.40;42.50;;;;;;5053081;28;47318;-67
2024/01/03 06:48:36;;;;;;;3.30;0.90;;;8.40;42.90;;;;;;5051667;28;46361;-68
2024/01/03 06:51:03;;;;;;;3.00;1.00;;;8.40;43.00;;;;;;5050759;28;46665;-66
2024/01/03 06:53:30;;;;;;;3.57;0.73;;;8.60;42.60;;;;;;5049217;28;46609;-68
2024/01/03 06:55:56;;;;;;;1.20;0.70;;;8.80;42.20;;;;;;5052318;28;46884;-68
2024/01/03 06:58:22;;;;;;;1.93;0.83;;;8.70;42.20;;;;;;5033472;28;46451;-69
2024/01/03 07:00:48;;;;;;;1.80;0.80;;;8.60;42.80;;;;;;5049440;28;46652;-70
2024/01/03 07:03:15;;;;;;;2.10;1.00;;;8.40;43.30;;;;;;5049586;28;46402;-69
2024/01/03 07:05:41;;;;;;;3.13;0.90;;;8.30;44.10;;;;;;5050200;28;46422;-69
2024/01/03 07:08:07;;;;;;;1.47;0.83;;;8.30;44.90;;;;;;5052423;28;46404;-68
2024/01/03 07:10:33;;;;;;;1.67;1.20;;;8.30;45.30;;;;;;5050194;28;46435;-68
2024/01/03 07:12:59;;;;;;;2.07;0.73;;;8.20;45.50;;;;;;5049417;28;46706;-68
2024/01/03 07:15:28;;;;;;;1.63;0.80;;;8.30;45.60;;;;;;5050460;28;47336;-67
2024/01/03 07:17:55;;;;;;;2.63;1.00;;;8.30;45.50;;;;;;5053743;28;46530;-68
2024/01/03 07:20:24;;;;;;;5.10;1.07;;;8.40;45.50;;;;;;5048257;28;46642;-67
2024/01/03 07:22:50;;;;;;;3.33;0.80;;;8.60;45.00;;;;;;5050141;28;45904;-67
2024/01/03 07:25:16;;;;;;;2.40;0.90;;;8.80;44.40;;;;;;5051062;28;46447;-71
2024/01/03 07:27:42;;;;;;;1.83;0.90;;;8.80;44.50;;;;;;5048767;28;46518;-66
2024/01/03 07:30:09;;;;;;;2.50;1.03;;;8.80;44.40;;;;;;5050939;28;46652;-67
2024/01/03 07:32:34;;;;;;;4.13;1.10;;;8.90;44.40;;;;;;5048829;28;46368;-68
2024/01/03 07:35:00;;;;;;;1.60;0.90;;;9.00;44.30;;;;;;5047726;28;47019;-68
2024/01/03 07:37:27;;;;;;;3.80;1.00;;;9.00;43.90;;;;;;5049756;28;46507;-67
2024/01/03 07:39:52;;;;;;;3.67;0.90;;;9.00;43.90;;;;;;5047403;28;46580;-67
2024/01/03 07:42:18;;;;;;;4.23;1.00;;;9.10;43.90;;;;;;5050472;28;46415;-67
2024/01/03 07:44:43;;;;;;;3.53;1.10;;;9.30;43.30;;;;;;5049741;28;46246;-68
2024/01/03 07:47:11;;;;;;;2.53;0.90;;;9.40;42.70;;;;;;5047478;28;46381;-68
2024/01/03 07:49:37;;;;;;;3.20;1.27;;;9.50;42.10;;;;;;5047150;28;46900;-68
2024/01/03 07:52:04;;;;;;;5.17;1.00;;;9.50;42.00;;;;;;5048448;28;46506;-66
2024/01/03 07:54:30;;;;;;;3.33;1.30;;;9.40;42.10;;;;;;5046653;28;47627;-68
2024/01/03 07:56:57;;;;;;;2.63;0.90;;;9.40;42.10;;;;;;5048196;28;45825;-69
2024/01/03 07:59:22;;;;;;;5.13;1.63;;;9.40;42.10;;;;;;5051431;28;46894;-69
2024/01/03 08:01:48;;;;;;;1.90;1.00;;;9.40;42.20;;;;;;5048021;28;46423;-68
2024/01/03 08:04:16;;;;;;;3.10;1.00;;;9.40;42.00;;;;;;5050158;28;46493;-69
2024/01/03 08:06:42;;;;;;;3.27;1.07;;;9.40;41.90;;;;;;5047312;28;46719;-67
2024/01/03 08:09:07;;;;;;;6.13;1.00;;;9.40;42.10;;;;;;5048138;28;46782;-69
2024/01/03 08:11:34;;;;;;;2.00;0.77;;;9.50;41.80;;;;;;5045082;28;46491;-68
2024/01/03 08:14:00;;;;;;;5.33;1.03;;;9.50;41.50;;;;;;5047056;28;46463;-68
2024/01/03 08:16:25;;;;;;;3.77;0.87;;;9.40;41.70;;;;;;5048731;28;46352;-68
2024/01/03 08:18:51;;;;;;;3.43;0.80;;;9.40;41.70;;;;;;5051285;28;46727;-68
2024/01/03 08:21:18;;;;;;;5.17;1.10;;;9.40;41.70;;;;;;5047891;28;46573;-69
2024/01/03 08:23:44;;;;;;;6.53;1.10;;;9.40;41.80;;;;;;5047134;28;47109;-68
2024/01/03 08:26:12;;;;;;;1.43;0.70;;;9.40;42.00;;;;;;5043884;28;45866;-66
2024/01/03 08:28:41;;;;;;;2.50;0.90;;;9.30;41.80;;;;;;5046683;28;46424;-68
2024/01/03 08:31:17;;;;;;;5.13;0.77;;;9.20;41.90;;;;;;5047561;28;46406;-68
2024/01/03 08:33:45;;;;;;;1.60;0.90;;;9.20;42.10;;;;;;5046218;28;46444;-69
2024/01/03 08:36:12;;;;;;;2.40;1.10;;;9.30;41.60;;;;;;5042144;28;46707;-68
2024/01/03 08:38:38;;;;;;;3.20;0.90;;;9.60;40.80;;;;;;5044503;28;46694;-69
2024/01/03 08:41:12;;;;;;;4.77;1.53;;;9.70;40.20;;;;;;5044639;28;46662;-68
2024/01/03 08:43:38;;;;;;;4.27;1.33;;;9.80;39.50;;;;;;5043683;28;46371;-69
2024/01/03 08:46:04;;;;;;;1.60;0.70;;;9.80;39.20;;;;;;5045590;28;46399;-70
2024/01/03 08:48:30;;;;;;;4.37;0.90;;;9.90;39.30;;;;;;5045536;28;45860;-68
2024/01/03 08:50:55;;;;;;;2.70;0.80;;;10.00;38.40;;;;;;5049460;28;46477;-70
2024/01/03 08:53:21;;;;;;;3.50;1.07;;;10.00;37.90;;;;;;5047342;28;46467;-70
2024/01/03 08:55:46;;;;;;;5.73;1.20;;;10.10;37.70;;;;;;5044872;28;46359;-69
2024/01/03 08:58:12;;;;;;;2.10;0.90;;;10.10;37.60;;;;;;5046326;28;46434;-68
2024/01/03 09:00:37;;;;;;;2.90;1.10;;;10.10;37.30;;;;;;5047527;28;46473;-69
2024/01/03 09:03:03;;;;;;;2.70;1.00;;;10.00;37.50;;;;;;5048524;28;47166;-68
2024/01/03 09:05:29;;;;;;;2.10;0.80;;;9.90;38.70;;;;;;5044650;28;46207;-69
2024/01/03 09:07:54;;;;;;;2.50;1.00;;;9.90;39.20;;;;;;5029333;28;46705;-70
2024/01/03 09:10:20;;;;;;;3.93;0.97;;;9.90;38.90;;;;;;5044536;28;45881;-69
2024/01/03 09:12:45;;;;;;;4.83;1.33;;;9.90;38.80;;;;;;5043395;28;47061;-70
2024/01/03 09:15:11;;;;;;;3.80;1.00;;;9.80;38.80;;;;;;5046326;28;46531;-71
2024/01/03 09:17:42;;;;;;;4.50;1.10;;;9.70;39.10;;;;;;5046845;28;46827;-68
2024/01/03 09:20:11;;;;;;;3.50;1.10;;;9.70;39.20;;;;;;5049370;28;46524;-71
2024/01/03 09:22:38;;;;;;;2.70;1.00;;;9.80;39.00;;;;;;5045007;28;47165;-68
2024/01/03 09:25:04;;;;;;;2.80;0.83;;;9.90;38.30;;;;;;5046054;28;46758;-67
2024/01/03 09:27:30;;;;;;;2.30;0.80;;;10.10;36.70;;;;;;5045599;28;46473;-69
2024/01/03 09:29:56;;;;;;;2.57;1.07;;;10.30;35.80;;;;;;5046406;28;46488;-68
2024/01/03 09:32:21;;;;;;;3.67;1.00;;;10.50;35.00;;;;;;5045649;28;46956;-70
2024/01/03 09:34:47;;;;;;;2.83;1.20;;;10.70;34.10;;;;;;5047982;22;46401;-74
2024/01/03 09:37:14;;;;;;;4.27;1.40;;;10.80;33.50;;;;;;5013175;28;45857;-73
2024/01/03 09:39:40;;;;;;;1.93;1.00;;;10.90;32.60;;;;;;5008392;28;46532;-73
2024/01/03 09:42:06;;;;;;;6.20;0.90;;;10.90;32.30;;;;;;5009861;28;46207;-73
2024/01/03 09:44:33;;;;;;;3.63;1.00;;;10.90;31.80;;;;;;5011071;28;46409;-70
2024/01/03 09:46:59;;;;;;;3.53;1.10;;;11.00;31.20;;;;;;5008780;28;46453;-72
2024/01/03 09:49:25;;;;;;;5.50;1.03;;;11.10;31.00;;;;;;5013744;28;46362;-73
2024/01/03 09:51:51;;;;;;;3.50;1.17;;;11.20;30.30;;;;;;5012890;28;46496;-71
2024/01/03 09:54:19;;;;;;;4.57;1.00;;;11.30;30.00;;;;;;5011149;28;46365;-72
2024/01/03 09:56:47;;;;;;;2.93;1.10;;;11.20;29.90;;;;;;5009675;28;46350;-72
2024/01/03 09:59:13;;;;;;;3.33;1.00;;;11.10;29.90;;;;;;5010513;28;46507;-73
2024/01/03 10:01:38;;;;;;;14.10;1.63;;;11.10;30.00;;;;;;5011292;28;46371;-73
2024/01/03 10:04:06;;;;;;;2.20;0.90;;;11.10;29.90;;;;;;5010925;28;46507;-73
2024/01/03 10:06:31;;;;;;;2.07;0.93;;;11.10;29.70;;;;;;5014100;28;47427;-72
2024/01/03 10:09:02;;;;;;;4.10;1.20;;;11.20;29.00;;;;;;5012889;28;46963;-72
2024/01/03 10:11:28;;;;;;;4.30;1.20;;;11.30;28.60;;;;;;5011431;28;47022;-72
2024/01/03 10:13:55;;;;;;;3.50;1.20;;;11.40;28.30;;;;;;5011107;28;46413;-74
2024/01/03 10:16:28;;;;;;;2.93;1.30;;;11.40;27.90;;;;;;5033544;28;46357;-73
2024/01/03 10:19:13;;;;;;;3.70;1.37;;;11.40;27.10;;;;;;5030533;28;46504;-73
2024/01/03 10:21:55;;;;;;;2.90;1.00;;;11.40;27.10;;;;;;5030245;28;47138;-72
2024/01/03 10:24:23;;;;;;;8.60;1.10;;;11.50;27.20;;;;;;5012071;28;46374;-71
2024/01/03 10:26:49;;;;;;;4.70;1.07;;;11.50;27.20;;;;;;5033994;28;46479;-72
2024/01/03 10:29:17;;;;;;;2.10;0.90;;;11.50;27.00;;;;;;5028614;28;46277;-73
2024/01/03 10:31:46;;;;;;;4.00;1.00;;;11.60;26.50;;;;;;5032414;28;46444;-72
2024/01/03 10:34:19;;;;;;;3.67;1.00;;;11.50;25.50;;;;;;5026770;28;46384;-73
2024/01/03 10:36:46;;;;;;;2.10;0.80;;;11.60;25.60;;;;;;5029526;28;46520;-72
2024/01/03 10:39:15;;;;;;;3.63;1.10;;;11.60;25.30;;;;;;5033797;28;46861;-73
2024/01/03 10:41:45;;;;;;;2.90;1.10;;;11.70;25.00;;;;;;5029333;28;46545;-73
2024/01/03 10:44:13;;;;;;;5.50;1.10;;;11.80;24.70;;;;;;5028550;28;46448;-72
2024/01/03 10:46:41;;;;;;;6.80;1.00;;;11.90;24.40;;;;;;5027037;28;46446;-72
2024/01/03 10:49:07;;;;;;;2.90;0.90;;;11.90;24.00;;;;;;5034028;28;46330;-73
2024/01/03 10:51:39;;;;;;;2.80;1.00;;;11.90;23.80;;;;;;5033891;28;46378;-72
2024/01/03 10:54:09;;;;;;;4.13;1.10;;;11.80;23.60;;;;;;5032840;28;46349;-73
2024/01/03 10:56:36;;;;;;;2.93;1.00;;;11.70;23.60;;;;;;5030276;28;46454;-72
2024/01/03 10:59:07;;;;;;;7.57;1.00;;;11.70;23.50;;;;;;5033472;28;46438;-73
2024/01/03 11:01:44;;;;;;;6.23;1.30;;;11.80;23.00;;;;;;5029945;28;48294;-72
2024/01/03 11:04:20;;;;;;;2.77;0.80;;;11.90;22.90;;;;;;5029956;28;46463;-72
2024/01/03 11:07:09;;;;;;;4.30;1.00;;;11.90;22.00;;;;;;5026584;28;46393;-72
2024/01/03 11:09:35;;;;;;;1.93;0.90;;;11.80;21.90;;;;;;5029085;28;46579;-72
2024/01/03 11:12:08;;;;;;;7.50;1.10;;;11.70;21.80;;;;;;5031347;28;47057;-72
2024/01/03 11:14:34;;;;;;;4.07;1.17;;;11.60;21.60;;;;;;5029096;28;46415;-71
2024/01/03 11:17:00;;;;;;;3.57;1.10;;;11.60;21.50;;;;;;5028673;28;46330;-71
2024/01/03 11:19:31;;;;;;;3.00;0.93;;;11.60;21.20;;;;;;5030814;28;46428;-72
2024/01/03 11:21:59;;;;;;;5.10;1.23;;;11.70;20.90;;;;;;5034716;28;47300;-72
2024/01/03 11:24:28;;;;;;;2.50;1.00;;;11.80;20.80;;;;;;5031106;28;46352;-72
2024/01/03 11:26:53;;;;;;;3.47;1.20;;;11.80;20.20;;;;;;5031178;28;46888;-72
2024/01/03 11:29:44;;;;;;;3.33;1.10;;;11.80;20.00;;;;;;5023961;28;46461;-72
2024/01/03 11:32:30;;;;;;;5.63;0.90;;;11.80;19.70;;;;;;5026037;28;47087;-70
2024/01/03 11:34:57;;;;;;;3.00;1.10;;;11.80;19.50;;;;;;5026264;28;46471;-72
2024/01/03 11:37:22;;;;;;;5.03;1.10;;;12.00;18.20;;;;;;5030100;28;46388;-70
2024/01/03 11:39:50;;;;;;;5.60;1.60;;;12.10;18.00;;;;;;5030988;28;46544;-72
2024/01/03 11:42:31;;;;;;;6.40;1.07;;;12.10;17.50;;;;;;5031326;28;46737;-72
2024/01/03 11:45:14;;;;;;;3.40;0.80;;;12.20;16.90;;;;;;5028326;28;46412;-72
2024/01/03 11:47:42;;;;;;;1.93;0.93;;;12.30;17.00;;;;;;5028633;28;46217;-70
2024/01/03 11:50:09;;;;;;;5.03;0.90;;;12.50;17.10;;;;;;5030590;28;46471;-71
2024/01/03 11:52:38;;;;;;;3.83;0.90;;;12.70;15.60;;;;;;5027131;28;46797;-69
2024/01/03 11:55:10;;;;;;;3.33;0.80;;;12.80;14.80;;;;;;5025402;28;46405;-72
2024/01/03 11:57:42;;;;;;;2.93;1.20;;;12.90;13.80;;;;;;5030046;28;46791;-72
2024/01/03 12:00:10;;;;;;;4.23;1.10;;;12.80;13.10;;;;;;5030521;28;46630;-72
2024/01/03 12:02:35;;;;;;;4.07;1.00;;;12.90;13.10;;;;;;5029440;28;48022;-71
2024/01/03 12:05:03;;;;;;;2.80;0.93;;;13.00;12.40;;;;;;5033027;28;46581;-71
2024/01/03 12:07:31;;;;;;;2.53;0.90;;;13.00;12.50;;;;;;5027670;28;46548;-71
2024/01/03 12:09:57;;;;;;;4.70;1.10;;;12.90;12.40;;;;;;5029485;28;46733;-71
2024/01/03 12:12:23;;;;;;;3.57;0.93;;;12.90;12.50;;;;;;5030677;28;47896;-71
2024/01/03 12:14:53;;;;;;;3.17;1.00;;;12.90;12.50;;;;;;5027836;28;46442;-72
2024/01/03 12:17:29;;;;;;;3.77;1.17;;;12.80;12.90;;;;;;5029204;28;46484;-71
2024/01/03 12:20:14;;;;;;;3.97;0.87;;;12.70;13.20;;;;;;5030150;28;46610;-72
2024/01/03 12:22:40;;;;;;;2.03;0.90;;;12.50;13.40;;;;;;5032055;28;46407;-71
2024/01/03 12:25:07;;;;;;;5.47;1.10;;;12.40;13.30;;;;;;5026252;28;46430;-72
2024/01/03 12:27:33;;;;;;;5.10;2.20;;;12.40;13.50;;;;;;5028039;28;46539;-72
2024/01/03 12:30:14;;;;;;;1.90;0.87;;;12.40;13.50;;;;;;5025795;28;46485;-71
2024/01/03 12:32:40;;;;;;;3.87;0.90;;;12.60;13.30;;;;;;5028060;28;46976;-71
2024/01/03 12:35:06;;;;;;;2.63;0.83;;;12.70;13.00;;;;;;5027736;28;46743;-72
2024/01/03 12:37:31;;;;;;;4.03;1.23;;;12.80;12.80;;;;;;5029450;28;46497;-70
2024/01/03 12:39:57;;;;;;;2.63;1.07;;;12.80;12.20;;;;;;5029564;28;46958;-71
2024/01/03 12:42:23;;;;;;;2.70;1.40;;;12.90;12.00;;;;;;5028029;28;46405;-71
2024/01/03 12:44:50;;;;;;;2.33;0.90;;;13.00;11.90;;;;;;5017258;28;46420;-73
2024/01/03 12:47:15;;;;;;;2.60;0.90;;;13.10;11.70;;;;;;5025464;28;46668;-72
2024/01/03 12:49:41;;;;;;;3.93;1.17;;;13.20;11.30;;;;;;5028507;28;46340;-72
2024/01/03 12:52:08;;;;;;;7.17;0.97;;;13.00;11.10;;;;;;5010535;28;47214;-72